Archival Weather

Snohomish County (Paine Fld)

Everett, Washington (KPAE)

Report from: Thursday, November 16, 2023 4:46 AM PST
Current time: Monday, June 17, 2024 12:10 AM PDT

Current weather – Weather history – Daily summaries
Weather forecast

Temperature1.7°C (35.1°F)
Wind chill-0.5°C (31.0°F)
Dew point0.0°C (32.0°F)
Winds 4 kts (2.1 m/s, 4.6 mph) North (360°)
Visibility9 mi. (14.5 km)
Clouds Scattered clouds 200 ft. (61 m)
Altimeter30.08 in.Hg (1019 mB)
Relative humidity88 %
Density altitude-1,710 ft. (-521 m)
Remarks Fully automated report
Automated weather observing station with precipitation discriminator
Flight conditions Visual Meteorological Conditions
Raw dataKPAE 161246Z AUTO 36004KT 9SM SCT002 02/00 A3008 RMK AO2 T00170000
An error has occurred. This application may no longer respond until reloaded. Reload 🗙